sensor_id;sensor_type;location;lat;lon;timestamp;P1;durP1;ratioP1;P2;durP2;ratioP2
54657;SDS011;56972;43.886;20.354;2022-08-19T00:02:24;20.00;;;6.13;;
54657;SDS011;56972;43.886;20.354;2022-08-19T00:04:50;10.55;;;5.90;;
54657;SDS011;56972;43.886;20.354;2022-08-19T00:07:18;11.45;;;6.43;;
54657;SDS011;56972;43.886;20.354;2022-08-19T00:09:44;8.45;;;5.28;;
54657;SDS011;56972;43.886;20.354;2022-08-19T00:12:12;9.30;;;5.60;;
54657;SDS011;56972;43.886;20.354;2022-08-19T00:14:39;11.35;;;5.90;;
54657;SDS011;56972;43.886;20.354;2022-08-19T00:17:05;9.75;;;5.65;;
54657;SDS011;56972;43.886;20.354;2022-08-19T00:19:31;15.90;;;7.22;;
54657;SDS011;56972;43.886;20.354;2022-08-19T00:21:58;9.00;;;6.03;;
54657;SDS011;56972;43.886;20.354;2022-08-19T00:24:24;10.40;;;6.78;;
54657;SDS011;56972;43.886;20.354;2022-08-19T00:26:51;8.73;;;6.53;;
54657;SDS011;56972;43.886;20.354;2022-08-19T00:29:18;10.80;;;6.00;;
54657;SDS011;56972;43.886;20.354;2022-08-19T00:31:45;8.80;;;5.95;;
54657;SDS011;56972;43.886;20.354;2022-08-19T00:34:11;12.48;;;5.88;;
54657;SDS011;56972;43.886;20.354;2022-08-19T00:36:38;11.65;;;7.00;;
54657;SDS011;56972;43.886;20.354;2022-08-19T00:39:04;10.10;;;6.22;;
54657;SDS011;56972;43.886;20.354;2022-08-19T00:41:30;12.38;;;5.35;;
54657;SDS011;56972;43.886;20.354;2022-08-19T00:44:41;8.27;;;6.35;;
54657;SDS011;56972;43.886;20.354;2022-08-19T00:46:45;13.82;;;7.05;;
54657;SDS011;56972;43.886;20.354;2022-08-19T00:49:19;9.15;;;6.40;;
54657;SDS011;56972;43.886;20.354;2022-08-19T00:51:47;11.38;;;5.53;;
54657;SDS011;56972;43.886;20.354;2022-08-19T00:54:14;12.23;;;5.53;;
54657;SDS011;56972;43.886;20.354;2022-08-19T00:56:41;9.88;;;7.20;;
54657;SDS011;56972;43.886;20.354;2022-08-19T00:59:07;11.50;;;7.00;;
54657;SDS011;56972;43.886;20.354;2022-08-19T01:01:40;9.43;;;6.18;;
54657;SDS011;56972;43.886;20.354;2022-08-19T01:04:07;20.00;;;7.28;;
54657;SDS011;56972;43.886;20.354;2022-08-19T01:06:33;13.25;;;6.32;;
54657;SDS011;56972;43.886;20.354;2022-08-19T01:09:01;8.65;;;5.93;;
54657;SDS011;56972;43.886;20.354;2022-08-19T01:11:27;11.32;;;7.22;;
54657;SDS011;56972;43.886;20.354;2022-08-19T01:13:53;10.75;;;5.95;;
54657;SDS011;56972;43.886;20.354;2022-08-19T01:16:21;12.40;;;6.93;;
54657;SDS011;56972;43.886;20.354;2022-08-19T01:18:48;11.10;;;6.28;;
54657;SDS011;56972;43.886;20.354;2022-08-19T01:21:58;14.18;;;7.03;;
54657;SDS011;56972;43.886;20.354;2022-08-19T01:24:03;17.63;;;9.93;;
54657;SDS011;56972;43.886;20.354;2022-08-19T01:26:29;12.23;;;7.07;;
54657;SDS011;56972;43.886;20.354;2022-08-19T01:28:56;10.45;;;7.38;;
54657;SDS011;56972;43.886;20.354;2022-08-19T01:31:24;10.32;;;6.97;;
54657;SDS011;56972;43.886;20.354;2022-08-19T01:33:51;9.48;;;6.60;;
54657;SDS011;56972;43.886;20.354;2022-08-19T01:36:51;13.93;;;7.72;;
54657;SDS011;56972;43.886;20.354;2022-08-19T01:39:11;16.15;;;8.55;;
54657;SDS011;56972;43.886;20.354;2022-08-19T01:41:38;12.77;;;7.25;;
54657;SDS011;56972;43.886;20.354;2022-08-19T01:44:05;13.00;;;8.23;;
54657;SDS011;56972;43.886;20.354;2022-08-19T01:46:31;13.20;;;8.25;;
54657;SDS011;56972;43.886;20.354;2022-08-19T01:48:58;11.90;;;6.28;;
54657;SDS011;56972;43.886;20.354;2022-08-19T01:51:24;11.27;;;6.60;;
54657;SDS011;56972;43.886;20.354;2022-08-19T01:53:51;8.70;;;6.85;;
54657;SDS011;56972;43.886;20.354;2022-08-19T01:56:18;10.73;;;7.13;;
54657;SDS011;56972;43.886;20.354;2022-08-19T01:58:47;14.52;;;8.02;;
54657;SDS011;56972;43.886;20.354;2022-08-19T02:01:16;9.88;;;5.90;;
54657;SDS011;56972;43.886;20.354;2022-08-19T02:03:42;10.07;;;6.45;;
54657;SDS011;56972;43.886;20.354;2022-08-19T02:06:08;10.02;;;7.03;;
54657;SDS011;56972;43.886;20.354;2022-08-19T02:08:35;8.73;;;6.97;;
54657;SDS011;56972;43.886;20.354;2022-08-19T02:11:01;13.63;;;7.15;;
54657;SDS011;56972;43.886;20.354;2022-08-19T02:13:28;10.50;;;7.13;;
54657;SDS011;56972;43.886;20.354;2022-08-19T02:15:54;13.75;;;7.68;;
54657;SDS011;56972;43.886;20.354;2022-08-19T02:18:20;16.13;;;7.53;;
54657;SDS011;56972;43.886;20.354;2022-08-19T02:20:46;12.63;;;7.53;;
54657;SDS011;56972;43.886;20.354;2022-08-19T02:23:13;11.93;;;7.95;;
54657;SDS011;56972;43.886;20.354;2022-08-19T02:25:39;11.45;;;7.55;;
54657;SDS011;56972;43.886;20.354;2022-08-19T02:28:05;14.18;;;7.82;;
54657;SDS011;56972;43.886;20.354;2022-08-19T02:30:31;13.15;;;8.77;;
54657;SDS011;56972;43.886;20.354;2022-08-19T02:32:57;12.73;;;9.98;;
54657;SDS011;56972;43.886;20.354;2022-08-19T02:35:24;12.95;;;8.70;;
54657;SDS011;56972;43.886;20.354;2022-08-19T02:37:51;16.77;;;8.73;;
54657;SDS011;56972;43.886;20.354;2022-08-19T02:40:35;18.90;;;8.68;;
54657;SDS011;56972;43.886;20.354;2022-08-19T02:43:02;16.85;;;9.20;;
54657;SDS011;56972;43.886;20.354;2022-08-19T02:45:32;15.80;;;9.27;;
54657;SDS011;56972;43.886;20.354;2022-08-19T02:47:58;12.32;;;8.65;;
54657;SDS011;56972;43.886;20.354;2022-08-19T02:50:24;11.70;;;7.82;;
54657;SDS011;56972;43.886;20.354;2022-08-19T02:52:50;14.38;;;8.20;;
54657;SDS011;56972;43.886;20.354;2022-08-19T02:55:17;10.20;;;7.80;;
54657;SDS011;56972;43.886;20.354;2022-08-19T02:57:43;14.70;;;9.23;;
54657;SDS011;56972;43.886;20.354;2022-08-19T03:00:10;15.00;;;9.13;;
54657;SDS011;56972;43.886;20.354;2022-08-19T03:02:39;19.83;;;8.50;;
54657;SDS011;56972;43.886;20.354;2022-08-19T03:05:05;11.10;;;9.05;;
54657;SDS011;56972;43.886;20.354;2022-08-19T03:07:32;15.93;;;9.02;;
54657;SDS011;56972;43.886;20.354;2022-08-19T03:09:58;18.10;;;9.52;;
54657;SDS011;56972;43.886;20.354;2022-08-19T03:12:24;13.00;;;9.23;;
54657;SDS011;56972;43.886;20.354;2022-08-19T03:14:50;14.00;;;9.02;;
54657;SDS011;56972;43.886;20.354;2022-08-19T03:17:17;24.52;;;10.30;;
54657;SDS011;56972;43.886;20.354;2022-08-19T03:19:43;18.27;;;10.25;;
54657;SDS011;56972;43.886;20.354;2022-08-19T03:22:10;15.82;;;8.88;;
54657;SDS011;56972;43.886;20.354;2022-08-19T03:24:36;16.90;;;10.55;;
54657;SDS011;56972;43.886;20.354;2022-08-19T03:27:02;12.30;;;7.82;;
54657;SDS011;56972;43.886;20.354;2022-08-19T03:29:30;18.13;;;9.95;;
54657;SDS011;56972;43.886;20.354;2022-08-19T03:31:57;14.90;;;10.70;;
54657;SDS011;56972;43.886;20.354;2022-08-19T03:34:26;11.60;;;9.38;;
54657;SDS011;56972;43.886;20.354;2022-08-19T03:36:56;18.77;;;10.05;;
54657;SDS011;56972;43.886;20.354;2022-08-19T03:39:23;14.52;;;10.02;;
54657;SDS011;56972;43.886;20.354;2022-08-19T03:41:50;14.02;;;10.35;;
54657;SDS011;56972;43.886;20.354;2022-08-19T03:44:17;12.52;;;9.23;;
54657;SDS011;56972;43.886;20.354;2022-08-19T03:46:46;13.00;;;9.15;;
54657;SDS011;56972;43.886;20.354;2022-08-19T03:49:12;14.00;;;9.57;;
54657;SDS011;56972;43.886;20.354;2022-08-19T03:51:38;13.93;;;8.55;;
54657;SDS011;56972;43.886;20.354;2022-08-19T03:54:05;17.13;;;8.82;;
54657;SDS011;56972;43.886;20.354;2022-08-19T03:56:36;13.48;;;9.82;;
54657;SDS011;56972;43.886;20.354;2022-08-19T03:59:03;13.80;;;8.52;;
54657;SDS011;56972;43.886;20.354;2022-08-19T04:01:29;16.55;;;9.63;;
54657;SDS011;56972;43.886;20.354;2022-08-19T04:03:56;17.33;;;10.02;;
54657;SDS011;56972;43.886;20.354;2022-08-19T04:06:24;15.55;;;9.32;;
54657;SDS011;56972;43.886;20.354;2022-08-19T04:08:51;18.05;;;11.25;;
54657;SDS011;56972;43.886;20.354;2022-08-19T04:11:20;13.40;;;8.57;;
54657;SDS011;56972;43.886;20.354;2022-08-19T04:13:47;14.85;;;8.40;;
54657;SDS011;56972;43.886;20.354;2022-08-19T04:16:13;12.38;;;6.65;;
54657;SDS011;56972;43.886;20.354;2022-08-19T04:18:40;16.02;;;8.40;;
54657;SDS011;56972;43.886;20.354;2022-08-19T04:21:07;12.20;;;9.20;;
54657;SDS011;56972;43.886;20.354;2022-08-19T04:23:34;21.00;;;16.25;;
54657;SDS011;56972;43.886;20.354;2022-08-19T04:26:03;21.75;;;8.88;;
54657;SDS011;56972;43.886;20.354;2022-08-19T04:28:29;14.43;;;9.15;;
54657;SDS011;56972;43.886;20.354;2022-08-19T04:30:55;11.07;;;9.55;;
54657;SDS011;56972;43.886;20.354;2022-08-19T04:33:22;15.77;;;9.90;;
54657;SDS011;56972;43.886;20.354;2022-08-19T04:35:50;16.40;;;9.93;;
54657;SDS011;56972;43.886;20.354;2022-08-19T04:38:17;17.92;;;9.73;;
54657;SDS011;56972;43.886;20.354;2022-08-19T04:40:44;13.00;;;9.20;;
54657;SDS011;56972;43.886;20.354;2022-08-19T04:43:29;19.33;;;9.98;;
54657;SDS011;56972;43.886;20.354;2022-08-19T04:45:56;15.25;;;9.38;;
54657;SDS011;56972;43.886;20.354;2022-08-19T04:48:22;13.25;;;9.63;;
54657;SDS011;56972;43.886;20.354;2022-08-19T04:50:52;17.70;;;9.20;;
54657;SDS011;56972;43.886;20.354;2022-08-19T04:53:25;24.08;;;9.50;;
54657;SDS011;56972;43.886;20.354;2022-08-19T04:55:53;18.75;;;10.13;;
54657;SDS011;56972;43.886;20.354;2022-08-19T04:58:19;19.40;;;10.85;;
54657;SDS011;56972;43.886;20.354;2022-08-19T05:00:45;16.60;;;10.25;;
54657;SDS011;56972;43.886;20.354;2022-08-19T05:03:11;18.73;;;10.45;;
54657;SDS011;56972;43.886;20.354;2022-08-19T05:05:40;16.33;;;10.32;;
54657;SDS011;56972;43.886;20.354;2022-08-19T05:08:06;13.27;;;10.38;;
54657;SDS011;56972;43.886;20.354;2022-08-19T05:10:36;16.50;;;10.57;;
54657;SDS011;56972;43.886;20.354;2022-08-19T05:13:02;17.13;;;9.55;;
54657;SDS011;56972;43.886;20.354;2022-08-19T05:15:29;20.80;;;9.73;;
54657;SDS011;56972;43.886;20.354;2022-08-19T05:17:55;17.52;;;10.27;;
54657;SDS011;56972;43.886;20.354;2022-08-19T05:20:39;19.83;;;10.70;;
54657;SDS011;56972;43.886;20.354;2022-08-19T05:23:24;16.58;;;9.75;;
54657;SDS011;56972;43.886;20.354;2022-08-19T05:25:50;13.77;;;9.23;;
54657;SDS011;56972;43.886;20.354;2022-08-19T05:28:18;13.70;;;10.70;;
54657;SDS011;56972;43.886;20.354;2022-08-19T05:30:45;19.90;;;10.65;;
54657;SDS011;56972;43.886;20.354;2022-08-19T05:33:11;17.95;;;8.98;;
54657;SDS011;56972;43.886;20.354;2022-08-19T05:35:38;20.05;;;9.77;;
54657;SDS011;56972;43.886;20.354;2022-08-19T05:38:05;17.45;;;9.93;;
54657;SDS011;56972;43.886;20.354;2022-08-19T05:40:36;20.40;;;9.70;;
54657;SDS011;56972;43.886;20.354;2022-08-19T05:43:02;15.07;;;9.02;;
54657;SDS011;56972;43.886;20.354;2022-08-19T05:45:29;20.77;;;9.70;;
54657;SDS011;56972;43.886;20.354;2022-08-19T05:47:55;13.18;;;9.27;;
54657;SDS011;56972;43.886;20.354;2022-08-19T05:50:21;19.23;;;9.45;;
54657;SDS011;56972;43.886;20.354;2022-08-19T05:52:47;16.67;;;9.15;;
54657;SDS011;56972;43.886;20.354;2022-08-19T05:55:13;14.77;;;10.63;;
54657;SDS011;56972;43.886;20.354;2022-08-19T05:57:39;14.35;;;9.52;;
54657;SDS011;56972;43.886;20.354;2022-08-19T06:00:05;17.35;;;9.82;;
54657;SDS011;56972;43.886;20.354;2022-08-19T06:02:35;12.43;;;9.27;;
54657;SDS011;56972;43.886;20.354;2022-08-19T06:05:03;25.35;;;11.32;;
54657;SDS011;56972;43.886;20.354;2022-08-19T06:07:31;29.35;;;10.77;;
54657;SDS011;56972;43.886;20.354;2022-08-19T06:09:57;23.23;;;11.20;;
54657;SDS011;56972;43.886;20.354;2022-08-19T06:12:23;25.40;;;10.85;;
54657;SDS011;56972;43.886;20.354;2022-08-19T06:14:58;27.98;;;10.73;;
54657;SDS011;56972;43.886;20.354;2022-08-19T06:17:24;19.88;;;12.55;;
54657;SDS011;56972;43.886;20.354;2022-08-19T06:19:51;20.40;;;9.57;;
54657;SDS011;56972;43.886;20.354;2022-08-19T06:22:17;17.25;;;10.05;;
54657;SDS011;56972;43.886;20.354;2022-08-19T06:24:43;16.60;;;10.82;;
54657;SDS011;56972;43.886;20.354;2022-08-19T06:27:10;18.75;;;10.52;;
54657;SDS011;56972;43.886;20.354;2022-08-19T06:29:36;21.65;;;11.05;;
54657;SDS011;56972;43.886;20.354;2022-08-19T06:32:03;19.23;;;11.50;;
54657;SDS011;56972;43.886;20.354;2022-08-19T06:34:31;19.83;;;11.02;;
54657;SDS011;56972;43.886;20.354;2022-08-19T06:36:58;17.25;;;11.20;;
54657;SDS011;56972;43.886;20.354;2022-08-19T06:39:29;19.08;;;11.80;;
54657;SDS011;56972;43.886;20.354;2022-08-19T06:41:56;22.90;;;11.23;;
54657;SDS011;56972;43.886;20.354;2022-08-19T06:44:23;17.45;;;11.80;;
54657;SDS011;56972;43.886;20.354;2022-08-19T06:46:51;26.10;;;13.13;;
54657;SDS011;56972;43.886;20.354;2022-08-19T06:49:17;24.27;;;12.20;;
54657;SDS011;56972;43.886;20.354;2022-08-19T06:51:44;24.95;;;13.43;;
54657;SDS011;56972;43.886;20.354;2022-08-19T06:54:12;13.18;;;9.68;;
54657;SDS011;56972;43.886;20.354;2022-08-19T06:56:39;16.27;;;9.43;;
54657;SDS011;56972;43.886;20.354;2022-08-19T06:59:10;19.77;;;9.82;;
54657;SDS011;56972;43.886;20.354;2022-08-19T07:01:37;13.48;;;8.43;;
54657;SDS011;56972;43.886;20.354;2022-08-19T07:04:05;13.45;;;8.00;;
54657;SDS011;56972;43.886;20.354;2022-08-19T07:06:31;16.85;;;9.80;;
54657;SDS011;56972;43.886;20.354;2022-08-19T07:08:57;10.60;;;7.93;;
54657;SDS011;56972;43.886;20.354;2022-08-19T07:11:23;13.20;;;8.60;;
54657;SDS011;56972;43.886;20.354;2022-08-19T07:13:50;15.05;;;7.28;;
54657;SDS011;56972;43.886;20.354;2022-08-19T07:16:17;15.25;;;8.43;;
54657;SDS011;56972;43.886;20.354;2022-08-19T07:18:47;20.88;;;9.18;;
54657;SDS011;56972;43.886;20.354;2022-08-19T07:21:15;16.63;;;8.35;;
54657;SDS011;56972;43.886;20.354;2022-08-19T07:23:42;14.52;;;8.18;;
54657;SDS011;56972;43.886;20.354;2022-08-19T07:26:13;13.40;;;7.95;;
54657;SDS011;56972;43.886;20.354;2022-08-19T07:28:41;15.43;;;7.95;;
54657;SDS011;56972;43.886;20.354;2022-08-19T07:31:09;13.65;;;8.48;;
54657;SDS011;56972;43.886;20.354;2022-08-19T07:33:35;14.85;;;8.82;;
54657;SDS011;56972;43.886;20.354;2022-08-19T07:36:05;25.55;;;9.05;;
54657;SDS011;56972;43.886;20.354;2022-08-19T07:38:31;14.05;;;8.68;;
54657;SDS011;56972;43.886;20.354;2022-08-19T07:40:58;15.85;;;8.65;;
54657;SDS011;56972;43.886;20.354;2022-08-19T07:43:24;15.70;;;7.93;;
54657;SDS011;56972;43.886;20.354;2022-08-19T07:45:51;15.93;;;7.85;;
54657;SDS011;56972;43.886;20.354;2022-08-19T07:48:18;13.07;;;9.20;;
54657;SDS011;56972;43.886;20.354;2022-08-19T07:50:44;15.13;;;9.32;;
54657;SDS011;56972;43.886;20.354;2022-08-19T07:53:10;16.10;;;9.38;;
54657;SDS011;56972;43.886;20.354;2022-08-19T07:55:37;18.02;;;9.48;;
54657;SDS011;56972;43.886;20.354;2022-08-19T07:58:03;14.48;;;9.95;;
54657;SDS011;56972;43.886;20.354;2022-08-19T08:00:30;21.90;;;11.15;;
54657;SDS011;56972;43.886;20.354;2022-08-19T08:02:56;19.75;;;10.25;;
54657;SDS011;56972;43.886;20.354;2022-08-19T08:05:24;15.95;;;11.88;;
54657;SDS011;56972;43.886;20.354;2022-08-19T08:08:10;22.52;;;10.98;;
54657;SDS011;56972;43.886;20.354;2022-08-19T08:10:55;16.25;;;10.23;;
54657;SDS011;56972;43.886;20.354;2022-08-19T08:13:22;16.85;;;11.02;;
54657;SDS011;56972;43.886;20.354;2022-08-19T08:15:48;13.95;;;9.30;;
54657;SDS011;56972;43.886;20.354;2022-08-19T08:18:14;13.15;;;10.10;;
54657;SDS011;56972;43.886;20.354;2022-08-19T08:20:45;17.05;;;9.40;;
54657;SDS011;56972;43.886;20.354;2022-08-19T08:23:11;14.60;;;8.27;;
54657;SDS011;56972;43.886;20.354;2022-08-19T08:25:54;16.70;;;9.90;;
54657;SDS011;56972;43.886;20.354;2022-08-19T08:28:20;16.35;;;8.77;;
54657;SDS011;56972;43.886;20.354;2022-08-19T08:30:46;12.75;;;8.35;;
54657;SDS011;56972;43.886;20.354;2022-08-19T08:33:13;10.05;;;7.75;;
54657;SDS011;56972;43.886;20.354;2022-08-19T08:35:40;15.80;;;7.22;;
54657;SDS011;56972;43.886;20.354;2022-08-19T08:38:07;17.30;;;7.97;;
54657;SDS011;56972;43.886;20.354;2022-08-19T08:43:07;11.88;;;8.02;;
54657;SDS011;56972;43.886;20.354;2022-08-19T08:45:35;20.85;;;7.18;;
54657;SDS011;56972;43.886;20.354;2022-08-19T08:48:02;14.23;;;7.18;;
54657;SDS011;56972;43.886;20.354;2022-08-19T08:50:33;15.95;;;6.55;;
54657;SDS011;56972;43.886;20.354;2022-08-19T08:53:01;18.75;;;7.82;;
54657;SDS011;56972;43.886;20.354;2022-08-19T08:55:30;16.90;;;7.25;;
54657;SDS011;56972;43.886;20.354;2022-08-19T08:58:06;16.02;;;7.40;;
54657;SDS011;56972;43.886;20.354;2022-08-19T09:00:39;16.00;;;7.07;;
54657;SDS011;56972;43.886;20.354;2022-08-19T09:03:09;17.90;;;7.35;;
54657;SDS011;56972;43.886;20.354;2022-08-19T09:05:44;10.85;;;6.85;;
54657;SDS011;56972;43.886;20.354;2022-08-19T09:10:49;13.90;;;6.95;;
54657;SDS011;56972;43.886;20.354;2022-08-19T09:13:21;13.00;;;7.60;;
54657;SDS011;56972;43.886;20.354;2022-08-19T09:16:35;14.50;;;6.65;;
54657;SDS011;56972;43.886;20.354;2022-08-19T09:18:40;17.23;;;7.20;;
54657;SDS011;56972;43.886;20.354;2022-08-19T09:21:07;12.48;;;7.00;;
54657;SDS011;56972;43.886;20.354;2022-08-19T09:23:34;9.85;;;6.63;;
54657;SDS011;56972;43.886;20.354;2022-08-19T09:26:00;14.05;;;6.70;;
54657;SDS011;56972;43.886;20.354;2022-08-19T09:28:27;13.68;;;6.25;;
54657;SDS011;56972;43.886;20.354;2022-08-19T09:30:54;17.42;;;6.50;;
54657;SDS011;56972;43.886;20.354;2022-08-19T09:33:20;14.88;;;6.78;;
54657;SDS011;56972;43.886;20.354;2022-08-19T09:35:47;17.20;;;7.65;;
54657;SDS011;56972;43.886;20.354;2022-08-19T09:38:13;16.95;;;8.32;;
54657;SDS011;56972;43.886;20.354;2022-08-19T09:40:39;17.60;;;7.18;;
54657;SDS011;56972;43.886;20.354;2022-08-19T09:43:05;12.77;;;6.85;;
54657;SDS011;56972;43.886;20.354;2022-08-19T09:45:32;16.45;;;7.28;;
54657;SDS011;56972;43.886;20.354;2022-08-19T09:47:58;13.27;;;6.38;;
54657;SDS011;56972;43.886;20.354;2022-08-19T09:50:24;11.65;;;6.80;;
54657;SDS011;56972;43.886;20.354;2022-08-19T09:52:51;16.60;;;6.43;;
54657;SDS011;56972;43.886;20.354;2022-08-19T09:55:18;23.35;;;8.43;;
54657;SDS011;56972;43.886;20.354;2022-08-19T09:57:44;14.52;;;7.10;;
54657;SDS011;56972;43.886;20.354;2022-08-19T10:00:10;12.98;;;7.10;;
54657;SDS011;56972;43.886;20.354;2022-08-19T10:02:36;10.80;;;6.38;;
54657;SDS011;56972;43.886;20.354;2022-08-19T10:05:03;13.73;;;7.82;;
54657;SDS011;56972;43.886;20.354;2022-08-19T10:07:47;12.20;;;6.97;;
54657;SDS011;56972;43.886;20.354;2022-08-19T10:10:13;12.98;;;7.00;;
54657;SDS011;56972;43.886;20.354;2022-08-19T10:12:40;20.73;;;8.38;;
54657;SDS011;56972;43.886;20.354;2022-08-19T10:15:07;12.73;;;7.00;;
54657;SDS011;56972;43.886;20.354;2022-08-19T10:17:33;14.10;;;7.30;;
54657;SDS011;56972;43.886;20.354;2022-08-19T10:20:00;13.52;;;7.85;;
54657;SDS011;56972;43.886;20.354;2022-08-19T10:22:28;10.57;;;7.28;;
54657;SDS011;56972;43.886;20.354;2022-08-19T10:24:54;11.95;;;7.40;;
54657;SDS011;56972;43.886;20.354;2022-08-19T10:27:20;15.38;;;7.88;;
54657;SDS011;56972;43.886;20.354;2022-08-19T10:29:46;15.80;;;7.03;;
54657;SDS011;56972;43.886;20.354;2022-08-19T10:32:14;19.02;;;8.45;;
54657;SDS011;56972;43.886;20.354;2022-08-19T10:34:41;13.30;;;7.28;;
54657;SDS011;56972;43.886;20.354;2022-08-19T10:37:07;11.55;;;6.57;;
54657;SDS011;56972;43.886;20.354;2022-08-19T10:39:35;16.58;;;7.32;;
54657;SDS011;56972;43.886;20.354;2022-08-19T10:42:05;13.48;;;7.13;;
54657;SDS011;56972;43.886;20.354;2022-08-19T10:44:32;13.13;;;6.88;;
54657;SDS011;56972;43.886;20.354;2022-08-19T10:47:00;15.07;;;6.72;;
54657;SDS011;56972;43.886;20.354;2022-08-19T10:49:27;8.30;;;5.43;;
54657;SDS011;56972;43.886;20.354;2022-08-19T10:51:53;8.48;;;6.00;;
54657;SDS011;56972;43.886;20.354;2022-08-19T10:54:37;11.10;;;7.03;;
54657;SDS011;56972;43.886;20.354;2022-08-19T10:57:36;12.57;;;7.22;;
54657;SDS011;56972;43.886;20.354;2022-08-19T11:00:03;9.90;;;5.97;;
54657;SDS011;56972;43.886;20.354;2022-08-19T11:02:29;9.95;;;5.95;;
54657;SDS011;56972;43.886;20.354;2022-08-19T11:04:57;10.07;;;6.38;;
54657;SDS011;56972;43.886;20.354;2022-08-19T11:07:23;13.35;;;10.60;;
54657;SDS011;56972;43.886;20.354;2022-08-19T11:09:51;17.77;;;6.85;;
54657;SDS011;56972;43.886;20.354;2022-08-19T11:12:17;8.30;;;6.05;;
54657;SDS011;56972;43.886;20.354;2022-08-19T11:14:44;10.95;;;5.68;;
54657;SDS011;56972;43.886;20.354;2022-08-19T11:17:10;8.63;;;6.10;;
54657;SDS011;56972;43.886;20.354;2022-08-19T11:19:38;13.65;;;6.47;;
54657;SDS011;56972;43.886;20.354;2022-08-19T11:22:06;15.73;;;6.72;;
54657;SDS011;56972;43.886;20.354;2022-08-19T11:24:34;11.80;;;6.20;;
54657;SDS011;56972;43.886;20.354;2022-08-19T11:27:07;13.40;;;6.30;;
54657;SDS011;56972;43.886;20.354;2022-08-19T11:29:35;12.70;;;5.72;;
54657;SDS011;56972;43.886;20.354;2022-08-19T11:32:05;15.20;;;5.55;;
54657;SDS011;56972;43.886;20.354;2022-08-19T11:34:32;15.48;;;6.13;;
54657;SDS011;56972;43.886;20.354;2022-08-19T11:37:00;12.13;;;6.13;;
54657;SDS011;56972;43.886;20.354;2022-08-19T11:39:29;15.00;;;5.63;;
54657;SDS011;56972;43.886;20.354;2022-08-19T11:42:01;11.93;;;6.00;;
54657;SDS011;56972;43.886;20.354;2022-08-19T11:44:28;11.53;;;6.33;;
54657;SDS011;56972;43.886;20.354;2022-08-19T11:46:55;11.48;;;5.72;;
54657;SDS011;56972;43.886;20.354;2022-08-19T11:49:21;15.05;;;6.18;;
54657;SDS011;56972;43.886;20.354;2022-08-19T11:51:48;11.02;;;5.00;;
54657;SDS011;56972;43.886;20.354;2022-08-19T11:54:15;16.73;;;6.45;;
54657;SDS011;56972;43.886;20.354;2022-08-19T11:56:42;20.08;;;6.78;;
54657;SDS011;56972;43.886;20.354;2022-08-19T11:59:08;15.90;;;5.82;;
54657;SDS011;56972;43.886;20.354;2022-08-19T12:01:35;12.20;;;5.90;;
54657;SDS011;56972;43.886;20.354;2022-08-19T12:04:01;16.15;;;6.25;;
54657;SDS011;56972;43.886;20.354;2022-08-19T12:06:30;15.57;;;5.72;;
54657;SDS011;56972;43.886;20.354;2022-08-19T12:08:58;11.73;;;5.38;;
54657;SDS011;56972;43.886;20.354;2022-08-19T12:11:24;9.35;;;4.70;;
54657;SDS011;56972;43.886;20.354;2022-08-19T12:13:51;10.93;;;5.55;;
54657;SDS011;56972;43.886;20.354;2022-08-19T12:16:19;13.30;;;6.05;;
54657;SDS011;56972;43.886;20.354;2022-08-19T12:18:46;11.70;;;4.57;;
54657;SDS011;56972;43.886;20.354;2022-08-19T12:21:12;15.10;;;6.53;;
54657;SDS011;56972;43.886;20.354;2022-08-19T12:23:39;9.23;;;4.88;;
54657;SDS011;56972;43.886;20.354;2022-08-19T12:26:06;15.50;;;4.65;;
54657;SDS011;56972;43.886;20.354;2022-08-19T12:28:32;12.80;;;5.85;;
54657;SDS011;56972;43.886;20.354;2022-08-19T12:30:58;19.10;;;5.22;;
54657;SDS011;56972;43.886;20.354;2022-08-19T12:33:24;23.77;;;6.40;;
54657;SDS011;56972;43.886;20.354;2022-08-19T12:35:53;22.65;;;6.20;;
54657;SDS011;56972;43.886;20.354;2022-08-19T12:38:20;10.63;;;5.88;;
54657;SDS011;56972;43.886;20.354;2022-08-19T12:40:49;14.98;;;6.22;;
54657;SDS011;56972;43.886;20.354;2022-08-19T12:43:16;16.92;;;5.70;;
54657;SDS011;56972;43.886;20.354;2022-08-19T12:45:43;11.35;;;4.50;;
54657;SDS011;56972;43.886;20.354;2022-08-19T12:48:10;10.93;;;5.50;;
54657;SDS011;56972;43.886;20.354;2022-08-19T12:50:38;15.07;;;5.72;;
54657;SDS011;56972;43.886;20.354;2022-08-19T12:53:05;18.40;;;5.18;;
54657;SDS011;56972;43.886;20.354;2022-08-19T12:55:31;18.25;;;6.70;;
54657;SDS011;56972;43.886;20.354;2022-08-19T12:57:57;16.48;;;6.20;;
54657;SDS011;56972;43.886;20.354;2022-08-19T13:00:25;15.88;;;5.97;;
54657;SDS011;56972;43.886;20.354;2022-08-19T13:02:51;20.73;;;6.38;;
54657;SDS011;56972;43.886;20.354;2022-08-19T13:05:19;21.83;;;6.22;;
54657;SDS011;56972;43.886;20.354;2022-08-19T13:07:47;18.48;;;5.78;;
54657;SDS011;56972;43.886;20.354;2022-08-19T13:10:14;19.20;;;6.28;;
54657;SDS011;56972;43.886;20.354;2022-08-19T13:12:41;14.55;;;6.38;;
54657;SDS011;56972;43.886;20.354;2022-08-19T13:15:08;12.98;;;6.07;;
54657;SDS011;56972;43.886;20.354;2022-08-19T13:17:34;20.17;;;6.18;;
54657;SDS011;56972;43.886;20.354;2022-08-19T13:20:01;17.27;;;5.55;;
54657;SDS011;56972;43.886;20.354;2022-08-19T13:22:27;15.85;;;6.13;;
54657;SDS011;56972;43.886;20.354;2022-08-19T13:24:53;15.70;;;5.25;;
54657;SDS011;56972;43.886;20.354;2022-08-19T13:27:21;14.27;;;5.95;;
54657;SDS011;56972;43.886;20.354;2022-08-19T13:29:47;15.40;;;5.47;;
54657;SDS011;56972;43.886;20.354;2022-08-19T13:32:32;16.63;;;6.18;;
54657;SDS011;56972;43.886;20.354;2022-08-19T13:35:17;15.73;;;6.65;;
54657;SDS011;56972;43.886;20.354;2022-08-19T13:37:43;20.85;;;6.53;;
54657;SDS011;56972;43.886;20.354;2022-08-19T13:40:18;18.92;;;6.15;;
54657;SDS011;56972;43.886;20.354;2022-08-19T13:42:45;13.27;;;6.72;;
54657;SDS011;56972;43.886;20.354;2022-08-19T13:45:12;17.25;;;5.82;;
54657;SDS011;56972;43.886;20.354;2022-08-19T13:47:39;21.92;;;6.93;;
54657;SDS011;56972;43.886;20.354;2022-08-19T13:50:13;16.50;;;5.55;;
54657;SDS011;56972;43.886;20.354;2022-08-19T13:52:40;23.40;;;5.60;;
54657;SDS011;56972;43.886;20.354;2022-08-19T13:55:06;17.63;;;5.70;;
54657;SDS011;56972;43.886;20.354;2022-08-19T13:57:32;17.35;;;5.40;;
54657;SDS011;56972;43.886;20.354;2022-08-19T13:59:59;21.85;;;7.10;;
54657;SDS011;56972;43.886;20.354;2022-08-19T14:02:25;10.25;;;5.60;;
54657;SDS011;56972;43.886;20.354;2022-08-19T14:04:51;23.90;;;7.35;;
54657;SDS011;56972;43.886;20.354;2022-08-19T14:07:17;19.55;;;6.50;;
54657;SDS011;56972;43.886;20.354;2022-08-19T14:09:43;18.33;;;6.82;;
54657;SDS011;56972;43.886;20.354;2022-08-19T14:12:09;20.35;;;5.70;;
54657;SDS011;56972;43.886;20.354;2022-08-19T14:14:38;15.95;;;6.60;;
54657;SDS011;56972;43.886;20.354;2022-08-19T14:17:08;21.23;;;6.43;;
54657;SDS011;56972;43.886;20.354;2022-08-19T14:19:37;24.17;;;8.90;;
54657;SDS011;56972;43.886;20.354;2022-08-19T14:22:03;16.15;;;6.88;;
54657;SDS011;56972;43.886;20.354;2022-08-19T14:24:30;14.85;;;5.80;;
54657;SDS011;56972;43.886;20.354;2022-08-19T14:26:57;18.13;;;7.75;;
54657;SDS011;56972;43.886;20.354;2022-08-19T14:29:23;26.63;;;8.30;;
54657;SDS011;56972;43.886;20.354;2022-08-19T14:31:49;21.73;;;8.52;;